createdAt,value
2023-05-13T00:00:46.039Z,10.82
2023-05-13T00:01:46.016Z,10.82
2023-05-13T00:02:46.054Z,10.82
2023-05-13T00:03:46.101Z,10.81
2023-05-13T00:04:46.008Z,10.82
2023-05-13T00:05:46.030Z,10.84
2023-05-13T00:06:45.964Z,10.81
2023-05-13T00:07:45.935Z,10.81
2023-05-13T00:08:45.924Z,10.81
2023-05-13T00:09:45.923Z,10.81
2023-05-13T00:10:45.898Z,10.81
2023-05-13T00:11:45.902Z,10.81
2023-05-13T00:12:45.952Z,10.79
2023-05-13T00:13:45.835Z,10.79
2023-05-13T00:14:45.839Z,10.81
2023-05-13T00:15:45.818Z,10.79
2023-05-13T00:16:45.871Z,10.79
2023-05-13T00:17:45.837Z,10.78
2023-05-13T00:18:45.849Z,10.78
2023-05-13T00:19:45.783Z,10.76
2023-05-13T00:20:45.753Z,10.76
2023-05-13T00:21:45.787Z,10.75
2023-05-13T00:22:45.742Z,10.78
2023-05-13T00:23:45.703Z,10.78
2023-05-13T00:24:45.732Z,10.78
2023-05-13T00:25:45.702Z,10.78
2023-05-13T00:26:45.695Z,10.78
2023-05-13T00:27:45.672Z,10.75
2023-05-13T00:28:45.658Z,10.75
2023-05-13T00:29:45.631Z,10.75
2023-05-13T00:30:45.831Z,10.75
2023-05-13T00:31:45.685Z,10.75
2023-05-13T00:32:45.651Z,10.76
2023-05-13T00:33:45.584Z,10.74
2023-05-13T00:34:45.582Z,10.74
2023-05-13T00:35:45.581Z,10.74
2023-05-13T00:36:45.538Z,10.72
2023-05-13T00:37:45.534Z,10.72
2023-05-13T00:38:45.506Z,10.71
2023-05-13T00:39:45.496Z,10.71
2023-05-13T00:40:45.517Z,10.72
2023-05-13T00:41:45.467Z,10.71
2023-05-13T00:42:45.484Z,10.71
2023-05-13T00:43:45.476Z,10.72
2023-05-13T00:44:45.430Z,10.72
2023-05-13T00:45:45.468Z,10.72
2023-05-13T00:46:45.446Z,10.71
2023-05-13T00:47:45.418Z,10.72
2023-05-13T00:48:45.386Z,10.72
2023-05-13T00:49:45.360Z,10.74
2023-05-13T00:50:45.350Z,10.74
2023-05-13T00:51:45.337Z,10.75
2023-05-13T00:52:45.350Z,10.72
2023-05-13T00:53:45.334Z,10.74
2023-05-13T00:54:45.317Z,10.74
2023-05-13T00:55:45.292Z,10.75
2023-05-13T00:56:45.269Z,10.72
2023-05-13T00:57:45.304Z,10.75
2023-05-13T00:58:45.261Z,10.72
2023-05-13T00:59:45.224Z,10.69
2023-05-13T01:00:45.254Z,10.68
2023-05-13T01:01:45.428Z,10.68
2023-05-13T01:02:45.288Z,10.64
2023-05-13T01:03:45.162Z,10.63
2023-05-13T01:04:45.165Z,10.63
2023-05-13T01:05:45.143Z,10.59
2023-05-13T01:06:45.168Z,10.59
2023-05-13T01:07:45.132Z,10.59
2023-05-13T01:08:45.140Z,10.59
2023-05-13T01:09:45.126Z,10.57
2023-05-13T01:10:45.077Z,10.57
2023-05-13T01:11:45.077Z,10.54
2023-05-13T01:12:45.062Z,10.53
2023-05-13T01:13:45.055Z,10.49
2023-05-13T01:14:45.092Z,10.49
2023-05-13T01:15:45.048Z,10.46
2023-05-13T01:16:45.033Z,10.46
2023-05-13T01:17:45.039Z,10.49
2023-05-13T01:18:45.005Z,10.51
2023-05-13T01:19:44.984Z,10.51
2023-05-13T01:20:44.973Z,10.53
2023-05-13T01:21:44.925Z,10.56
2023-05-13T01:22:44.925Z,10.56
2023-05-13T01:23:44.965Z,10.57
2023-05-13T01:24:44.973Z,10.56
2023-05-13T01:25:44.899Z,10.57
2023-05-13T01:26:44.865Z,10.56
2023-05-13T01:27:44.849Z,10.57
2023-05-13T01:28:44.842Z,10.59
2023-05-13T01:29:44.815Z,10.60
2023-05-13T01:30:44.829Z,10.61
2023-05-13T01:31:44.892Z,10.63
2023-05-13T01:32:44.849Z,10.63
2023-05-13T01:33:44.783Z,10.67
2023-05-13T01:34:44.755Z,10.67
2023-05-13T01:35:44.779Z,10.67
2023-05-13T01:36:44.728Z,10.67
2023-05-13T01:37:44.700Z,10.64
2023-05-13T01:38:44.697Z,10.64
2023-05-13T01:39:44.691Z,10.67
2023-05-13T01:40:44.712Z,10.64
2023-05-13T01:41:44.676Z,10.64
2023-05-13T01:42:44.673Z,10.67
2023-05-13T01:43:44.667Z,10.67
2023-05-13T01:44:44.637Z,10.68
2023-05-13T01:45:44.646Z,10.69
2023-05-13T01:46:44.656Z,10.69
2023-05-13T01:47:44.622Z,10.69
2023-05-13T01:48:44.567Z,10.69
2023-05-13T01:49:44.582Z,10.69
2023-05-13T01:50:44.581Z,10.67
2023-05-13T01:51:44.546Z,10.67
2023-05-13T01:52:44.523Z,10.64
2023-05-13T01:53:44.500Z,10.64
2023-05-13T01:54:44.482Z,10.64
2023-05-13T01:55:44.510Z,10.67
2023-05-13T01:56:44.496Z,10.67
2023-05-13T01:57:44.441Z,10.64
2023-05-13T01:58:44.438Z,10.63
2023-05-13T01:59:44.416Z,10.59
2023-05-13T02:00:44.417Z,10.59
2023-05-13T02:01:44.496Z,10.57
2023-05-13T02:02:44.492Z,10.56
2023-05-13T02:03:44.411Z,10.53
2023-05-13T02:04:44.340Z,10.56
2023-05-13T02:05:44.370Z,10.54
2023-05-13T02:06:44.329Z,10.54
2023-05-13T02:07:44.311Z,10.56
2023-05-13T02:08:44.303Z,10.54
2023-05-13T02:09:44.291Z,10.56
2023-05-13T02:10:44.291Z,10.54
2023-05-13T02:11:44.262Z,10.59
2023-05-13T02:12:44.313Z,10.56
2023-05-13T02:13:44.309Z,10.56
2023-05-13T02:14:44.215Z,10.56
2023-05-13T02:15:44.222Z,10.56
2023-05-13T02:16:44.256Z,10.56
2023-05-13T02:17:44.204Z,10.56
2023-05-13T02:18:44.220Z,10.56
2023-05-13T02:19:44.165Z,10.57
2023-05-13T02:20:44.126Z,10.57
2023-05-13T02:21:44.162Z,10.57
2023-05-13T02:22:44.119Z,10.57
2023-05-13T02:23:44.107Z,10.56
2023-05-13T02:24:44.076Z,10.57
2023-05-13T02:25:44.076Z,10.59
2023-05-13T02:26:44.093Z,10.56
2023-05-13T02:27:44.045Z,10.60
2023-05-13T02:28:44.026Z,10.61
2023-05-13T02:29:44.030Z,10.59
2023-05-13T02:30:44.013Z,10.61
2023-05-13T02:31:44.033Z,10.60
2023-05-13T02:32:44.189Z,10.61
2023-05-13T02:33:44.055Z,10.61
2023-05-13T02:34:44.002Z,10.63
2023-05-13T02:35:43.965Z,10.64
2023-05-13T02:36:43.930Z,10.63
2023-05-13T02:37:43.916Z,10.60
2023-05-13T02:38:43.916Z,10.61
2023-05-13T02:39:43.905Z,10.60
2023-05-13T02:40:43.896Z,10.61
2023-05-13T02:41:43.862Z,10.63
2023-05-13T02:42:43.838Z,10.63
2023-05-13T02:43:43.816Z,10.63
2023-05-13T02:44:43.840Z,10.63
2023-05-13T02:45:43.823Z,10.63
2023-05-13T02:46:43.790Z,10.63
2023-05-13T02:47:43.782Z,10.63
2023-05-13T02:48:43.795Z,10.64
2023-05-13T02:49:43.784Z,10.64
2023-05-13T02:50:43.737Z,10.67
2023-05-13T02:51:43.718Z,10.63
2023-05-13T02:52:43.712Z,10.67
2023-05-13T02:53:43.705Z,10.64
2023-05-13T02:54:43.717Z,10.67
2023-05-13T02:55:43.718Z,10.63
2023-05-13T02:56:43.666Z,10.63
2023-05-13T02:57:43.650Z,10.63
2023-05-13T02:58:43.636Z,10.63
2023-05-13T02:59:43.616Z,10.63
2023-05-13T03:00:43.623Z,10.64
2023-05-13T03:01:43.730Z,10.64
2023-05-13T03:02:43.671Z,10.63
2023-05-13T03:03:43.645Z,10.64
2023-05-13T03:04:43.540Z,10.64
2023-05-13T03:05:43.539Z,10.64
2023-05-13T03:06:43.532Z,10.64
2023-05-13T03:07:43.512Z,10.67
2023-05-13T03:08:43.535Z,10.67
2023-05-13T03:09:43.476Z,10.64
2023-05-13T03:11:14.027Z,10.64
2023-05-13T03:11:43.445Z,10.64
2023-05-13T03:12:43.481Z,10.63
2023-05-13T03:13:43.452Z,10.64
2023-05-13T03:14:43.412Z,10.64
2023-05-13T03:15:44.623Z,10.64
2023-05-13T03:16:43.395Z,10.64
2023-05-13T03:17:43.462Z,10.67
2023-05-13T03:18:43.408Z,10.68
2023-05-13T03:19:43.356Z,10.67
2023-05-13T03:20:43.340Z,10.68
2023-05-13T03:21:43.358Z,10.69
2023-05-13T03:22:43.315Z,10.67
2023-05-13T03:23:43.300Z,10.69
2023-05-13T03:24:43.279Z,10.69
2023-05-13T03:25:43.295Z,10.69
2023-05-13T03:26:43.263Z,10.69
2023-05-13T03:27:43.237Z,10.69
2023-05-13T03:28:43.242Z,10.67
2023-05-13T03:29:43.219Z,10.67
2023-05-13T03:30:43.233Z,10.64
2023-05-13T03:31:43.281Z,10.64
2023-05-13T03:32:43.201Z,10.64
2023-05-13T03:33:43.161Z,10.63
2023-05-13T03:34:43.141Z,10.63
2023-05-13T03:35:43.158Z,10.63
2023-05-13T03:36:43.158Z,10.63
2023-05-13T03:37:43.109Z,10.64
2023-05-13T03:38:43.092Z,10.67
2023-05-13T03:39:43.073Z,10.68
2023-05-13T03:40:43.082Z,10.67
2023-05-13T03:41:43.079Z,10.67
2023-05-13T03:42:43.076Z,10.67
2023-05-13T03:43:43.024Z,10.67
2023-05-13T03:44:43.043Z,10.64
2023-05-13T03:45:43.027Z,10.68
2023-05-13T03:46:43.045Z,10.67
2023-05-13T03:47:43.018Z,10.67
2023-05-13T03:48:42.993Z,10.64
2023-05-13T03:49:42.949Z,10.68
2023-05-13T03:50:42.955Z,10.67
2023-05-13T03:51:42.939Z,10.68
2023-05-13T03:52:45.548Z,10.68
2023-05-13T03:53:42.910Z,10.68
2023-05-13T03:54:42.893Z,10.68
2023-05-13T03:55:42.883Z,10.68
2023-05-13T03:56:42.860Z,10.68
2023-05-13T03:57:42.843Z,10.68
2023-05-13T03:58:42.838Z,10.68
2023-05-13T03:59:42.813Z,10.68
2023-05-13T04:00:42.821Z,10.69
2023-05-13T04:01:42.795Z,10.68
2023-05-13T04:02:43.023Z,10.67
2023-05-13T04:03:42.800Z,10.69
2023-05-13T04:04:42.794Z,10.67
2023-05-13T04:05:42.754Z,10.64
2023-05-13T04:06:42.748Z,10.64
2023-05-13T04:07:42.700Z,10.67
2023-05-13T04:08:42.728Z,10.63
2023-05-13T04:09:42.698Z,10.67
2023-05-13T04:10:42.706Z,10.64
2023-05-13T04:11:42.649Z,10.64
2023-05-13T04:12:42.632Z,10.63
2023-05-13T04:13:42.657Z,10.64
2023-05-13T04:14:42.621Z,10.64
2023-05-13T04:15:42.607Z,10.64
2023-05-13T04:16:42.670Z,10.63
2023-05-13T04:17:42.609Z,10.63
2023-05-13T04:18:42.635Z,10.63
2023-05-13T04:19:42.553Z,10.64
2023-05-13T04:20:42.538Z,10.64
2023-05-13T04:21:42.540Z,10.67
2023-05-13T04:22:42.501Z,10.68
2023-05-13T04:23:42.513Z,10.67
2023-05-13T04:24:42.480Z,10.68
2023-05-13T04:25:42.476Z,10.69
2023-05-13T04:26:42.465Z,10.68
2023-05-13T04:27:42.502Z,10.68
2023-05-13T04:28:42.446Z,10.69
2023-05-13T04:29:42.405Z,10.68
2023-05-13T04:30:42.394Z,10.64
2023-05-13T04:31:42.454Z,10.64
2023-05-13T04:32:42.496Z,10.63
2023-05-13T04:33:42.368Z,10.63
2023-05-13T04:34:42.335Z,10.61
2023-05-13T04:35:42.325Z,10.60
2023-05-13T04:36:42.331Z,10.61
2023-05-13T04:37:42.305Z,10.61
2023-05-13T04:38:42.327Z,10.61
2023-05-13T04:39:42.270Z,10.60
2023-05-13T04:40:42.275Z,10.60
2023-05-13T04:41:42.288Z,10.60
2023-05-13T04:42:42.233Z,10.61
2023-05-13T04:43:42.217Z,10.61
2023-05-13T04:44:42.224Z,10.61
2023-05-13T04:45:42.223Z,10.61
2023-05-13T04:46:42.218Z,10.63
2023-05-13T04:47:42.194Z,10.64
2023-05-13T04:48:42.160Z,10.63
2023-05-13T04:49:42.126Z,10.63
2023-05-13T04:50:42.171Z,10.63
2023-05-13T04:51:42.117Z,10.67
2023-05-13T04:52:42.096Z,10.63
2023-05-13T04:53:42.097Z,10.63
2023-05-13T04:54:42.087Z,10.63
2023-05-13T04:55:42.103Z,10.63
2023-05-13T04:56:42.050Z,10.63
2023-05-13T04:57:42.046Z,10.63
2023-05-13T04:58:42.022Z,10.64
2023-05-13T04:59:42.015Z,10.67
2023-05-13T05:00:42.003Z,10.63
2023-05-13T05:01:42.126Z,10.67
2023-05-13T05:02:42.021Z,10.67
2023-05-13T05:03:42.059Z,10.68
2023-05-13T05:04:41.935Z,10.68
2023-05-13T05:05:42.004Z,10.68
2023-05-13T05:06:41.919Z,10.67
2023-05-13T05:07:41.887Z,10.67
2023-05-13T05:08:41.885Z,10.67
2023-05-13T05:09:41.871Z,10.64
2023-05-13T05:10:41.899Z,10.68
2023-05-13T05:11:41.851Z,10.68
2023-05-13T05:12:41.913Z,10.68
2023-05-13T05:13:41.858Z,10.68
2023-05-13T05:14:41.792Z,10.68
2023-05-13T05:15:41.798Z,10.69
2023-05-13T05:16:41.775Z,10.68
2023-05-13T05:17:41.903Z,10.69
2023-05-13T05:18:41.826Z,10.69
2023-05-13T05:19:41.778Z,10.69
2023-05-13T05:20:41.777Z,10.71
2023-05-13T05:21:41.721Z,10.68
2023-05-13T05:22:41.701Z,10.64
2023-05-13T05:23:41.699Z,10.63
2023-05-13T05:24:41.676Z,10.63
2023-05-13T05:25:41.694Z,10.63
2023-05-13T05:26:42.845Z,10.64
2023-05-13T05:27:41.627Z,10.64
2023-05-13T05:28:41.611Z,10.68
2023-05-13T05:29:41.601Z,10.68
2023-05-13T05:30:41.612Z,10.68
2023-05-13T05:31:41.602Z,10.68
2023-05-13T05:32:41.643Z,10.68
2023-05-13T05:33:41.600Z,10.68
2023-05-13T05:34:41.536Z,10.67
2023-05-13T05:35:41.550Z,10.67
2023-05-13T05:36:41.534Z,10.63
2023-05-13T05:37:41.501Z,10.63
2023-05-13T05:38:41.498Z,10.64
2023-05-13T05:39:41.503Z,10.63
2023-05-13T05:40:41.454Z,10.61
2023-05-13T05:41:41.443Z,10.63
2023-05-13T05:42:41.457Z,10.63
2023-05-13T05:43:41.419Z,10.61
2023-05-13T05:44:41.410Z,10.63
2023-05-13T05:45:41.466Z,10.60
2023-05-13T05:46:41.397Z,10.60
2023-05-13T05:47:41.495Z,10.60
2023-05-13T05:48:41.354Z,10.59
2023-05-13T05:49:41.344Z,10.60
2023-05-13T05:50:41.324Z,10.61
2023-05-13T05:51:41.302Z,10.61
2023-05-13T05:52:41.329Z,10.61
2023-05-13T05:53:41.397Z,10.61
2023-05-13T05:54:41.276Z,10.61
2023-05-13T05:55:41.279Z,10.61
2023-05-13T05:56:41.260Z,10.63
2023-05-13T05:57:41.235Z,10.63
2023-05-13T05:58:41.254Z,10.63
2023-05-13T05:59:41.196Z,10.64
2023-05-13T06:00:41.192Z,10.64
2023-05-13T06:01:41.193Z,10.64
2023-05-13T06:02:41.331Z,10.64
2023-05-13T06:03:41.199Z,10.67
2023-05-13T06:04:41.289Z,10.68
2023-05-13T06:05:41.112Z,10.68
2023-05-13T06:06:41.306Z,10.68
2023-05-13T06:07:41.116Z,10.71
2023-05-13T06:08:41.087Z,10.71
2023-05-13T06:09:41.083Z,10.68
2023-05-13T06:10:41.048Z,10.69
2023-05-13T06:11:41.065Z,10.69
2023-05-13T06:12:41.032Z,10.71
2023-05-13T06:13:41.008Z,10.71
2023-05-13T06:14:41.002Z,10.71
2023-05-13T06:15:41.064Z,10.72
2023-05-13T06:16:41.010Z,10.71
2023-05-13T06:17:40.989Z,10.74
2023-05-13T06:18:40.993Z,10.71
2023-05-13T06:19:40.917Z,10.72
2023-05-13T06:20:40.929Z,10.74
2023-05-13T06:21:40.946Z,10.75
2023-05-13T06:22:40.904Z,10.75
2023-05-13T06:23:40.910Z,10.76
2023-05-13T06:24:40.875Z,10.78
2023-05-13T06:25:40.851Z,10.79
2023-05-13T06:26:40.835Z,10.78
2023-05-13T06:27:40.843Z,10.78
2023-05-13T06:28:40.860Z,10.81
2023-05-13T06:29:40.801Z,10.81
2023-05-13T06:30:40.799Z,10.82
2023-05-13T06:31:40.852Z,10.82
2023-05-13T06:32:47.251Z,10.84
2023-05-13T06:33:40.772Z,10.86
2023-05-13T06:34:40.752Z,10.87
2023-05-13T06:35:40.717Z,10.87
2023-05-13T06:36:40.736Z,10.89
2023-05-13T06:37:40.730Z,10.90
2023-05-13T06:38:40.681Z,10.89
2023-05-13T06:39:40.701Z,10.92
2023-05-13T06:40:40.666Z,10.92
2023-05-13T06:41:40.684Z,10.93
2023-05-13T06:42:40.633Z,10.94
2023-05-13T06:43:40.620Z,10.96
2023-05-13T06:44:40.601Z,10.96
2023-05-13T06:45:40.594Z,10.99
2023-05-13T06:46:40.630Z,11.02
2023-05-13T06:47:40.589Z,11.05
2023-05-13T06:50:08.375Z,11.08
2023-05-13T06:50:13.792Z,11.14
2023-05-13T06:51:13.710Z,11.15
2023-05-13T06:52:13.696Z,11.18
2023-05-13T06:53:13.677Z,11.23
2023-05-13T06:54:13.712Z,11.25
2023-05-13T06:55:13.661Z,11.26
2023-05-13T06:56:13.776Z,11.30
2023-05-13T06:57:13.629Z,11.35
2023-05-13T06:58:13.616Z,11.37
2023-05-13T06:59:13.606Z,11.44
2023-05-13T07:00:13.598Z,11.52
2023-05-13T07:01:13.617Z,11.62
2023-05-13T07:02:13.570Z,11.70
2023-05-13T07:03:13.583Z,11.80
2023-05-13T07:04:13.699Z,11.88
2023-05-13T07:05:13.519Z,11.97
2023-05-13T07:06:13.545Z,12.07
2023-05-13T07:07:13.498Z,12.20
2023-05-13T07:08:13.484Z,12.29
2023-05-13T07:09:13.511Z,12.37
2023-05-13T07:10:13.466Z,12.46
2023-05-13T07:11:13.473Z,12.54
2023-05-13T07:12:13.428Z,12.58
2023-05-13T07:13:13.434Z,12.60
2023-05-13T07:14:13.437Z,12.62
2023-05-13T07:15:13.386Z,12.62
2023-05-13T07:16:13.379Z,12.70
2023-05-13T07:17:13.395Z,12.67
2023-05-13T07:18:13.411Z,12.67
2023-05-13T07:19:13.427Z,12.65
2023-05-13T07:20:13.312Z,12.64
2023-05-13T07:21:13.332Z,12.61
2023-05-13T07:22:13.290Z,12.60
2023-05-13T07:23:13.279Z,12.60
2023-05-13T07:24:13.290Z,12.60
2023-05-13T07:25:13.270Z,12.61
2023-05-13T07:26:13.246Z,12.61
2023-05-13T07:27:13.232Z,12.62
2023-05-13T07:28:13.207Z,12.65
2023-05-13T07:29:13.205Z,12.60
2023-05-13T07:30:13.244Z,12.60
2023-05-13T07:31:13.236Z,12.58
2023-05-13T07:32:13.258Z,12.61
2023-05-13T07:33:13.220Z,12.60
2023-05-13T07:34:13.144Z,12.62
2023-05-13T07:35:13.130Z,12.62
2023-05-13T07:36:13.103Z,12.65
2023-05-13T07:37:13.127Z,12.64
2023-05-13T07:38:13.080Z,12.67
2023-05-13T07:39:13.066Z,12.68
2023-05-13T07:40:13.063Z,12.75
2023-05-13T07:41:13.055Z,12.80
2023-05-13T07:42:13.037Z,12.82
2023-05-13T07:43:13.044Z,12.83
2023-05-13T07:44:13.003Z,12.86
2023-05-13T07:45:12.983Z,12.86
2023-05-13T07:46:12.984Z,12.87
2023-05-13T07:47:13.720Z,12.86
2023-05-13T07:48:12.994Z,12.87
2023-05-13T07:49:12.938Z,12.87
2023-05-13T07:50:12.965Z,12.93
2023-05-13T07:51:12.918Z,12.94
2023-05-13T07:52:12.912Z,12.98
2023-05-13T07:53:12.909Z,12.98
2023-05-13T07:54:12.869Z,12.98
2023-05-13T07:55:12.946Z,13.00
2023-05-13T07:56:12.830Z,12.98
2023-05-13T07:57:12.828Z,13.04
2023-05-13T07:58:12.870Z,13.05
2023-05-13T07:59:12.798Z,13.09
2023-05-13T08:00:12.786Z,13.11
2023-05-13T08:01:12.782Z,13.13
2023-05-13T08:02:12.802Z,13.19
2023-05-13T08:03:12.859Z,13.22
2023-05-13T08:04:12.907Z,13.23
2023-05-13T08:05:12.758Z,13.28
2023-05-13T08:06:12.739Z,13.35
2023-05-13T08:07:12.709Z,13.41
2023-05-13T08:08:12.686Z,13.44
2023-05-13T08:09:12.687Z,13.50
2023-05-13T08:10:12.645Z,13.59
2023-05-13T08:11:12.628Z,13.65
2023-05-13T08:12:12.622Z,13.67
2023-05-13T08:13:12.611Z,13.70
2023-05-13T08:14:12.635Z,13.71
2023-05-13T08:15:12.633Z,13.72
2023-05-13T08:16:12.620Z,13.72
2023-05-13T08:17:12.580Z,13.75
2023-05-13T08:18:12.540Z,13.78
2023-05-13T08:19:12.630Z,13.81
2023-05-13T08:20:12.533Z,13.89
2023-05-13T08:21:12.523Z,13.95
2023-05-13T08:22:12.509Z,13.99
2023-05-13T08:23:12.491Z,13.99
2023-05-13T08:24:12.459Z,14.03
2023-05-13T08:25:12.451Z,14.03
2023-05-13T08:26:12.419Z,14.05
2023-05-13T08:27:12.454Z,14.08
2023-05-13T08:28:12.410Z,14.08
2023-05-13T08:29:12.398Z,14.10
2023-05-13T08:30:12.378Z,14.08
2023-05-13T08:31:12.632Z,14.12
2023-05-13T08:32:12.466Z,14.14
2023-05-13T08:33:12.344Z,14.18
2023-05-13T08:34:12.343Z,14.20
2023-05-13T08:35:12.310Z,14.22
2023-05-13T08:36:12.303Z,14.23
2023-05-13T08:37:12.296Z,14.26
2023-05-13T08:38:12.257Z,14.28
2023-05-13T08:39:12.286Z,14.25
2023-05-13T08:40:12.266Z,14.25
2023-05-13T08:41:12.246Z,14.25
2023-05-13T08:42:12.241Z,14.23
2023-05-13T08:43:12.224Z,14.26
2023-05-13T08:44:12.250Z,14.25
2023-05-13T08:45:12.186Z,14.26
2023-05-13T08:46:12.301Z,14.26
2023-05-13T08:47:12.171Z,14.28
2023-05-13T08:48:12.225Z,14.26
2023-05-13T08:49:12.130Z,14.28
2023-05-13T08:50:12.120Z,14.30
2023-05-13T08:51:12.108Z,14.30
2023-05-13T08:52:12.089Z,14.28
2023-05-13T08:53:12.128Z,14.25
2023-05-13T08:54:12.080Z,14.25
2023-05-13T08:55:12.062Z,14.22
2023-05-13T08:56:12.039Z,14.22
2023-05-13T08:57:12.021Z,14.20
2023-05-13T08:58:12.001Z,14.23
2023-05-13T08:59:12.014Z,14.25
2023-05-13T09:00:11.997Z,14.25
2023-05-13T09:01:12.058Z,14.26
2023-05-13T09:02:11.963Z,14.26
2023-05-13T09:03:11.975Z,14.26
2023-05-13T09:04:11.952Z,14.25
2023-05-13T09:05:11.940Z,14.23
2023-05-13T09:06:11.907Z,14.25
2023-05-13T09:07:11.886Z,14.28
2023-05-13T09:08:12.029Z,14.26
2023-05-13T09:09:11.879Z,14.25
2023-05-13T09:10:11.861Z,14.25
2023-05-13T09:11:11.831Z,14.26
2023-05-13T09:12:11.832Z,14.28
2023-05-13T09:13:11.802Z,14.20
2023-05-13T09:14:11.822Z,14.17
2023-05-13T09:15:11.774Z,14.12
2023-05-13T09:16:11.778Z,14.08
2023-05-13T09:17:11.787Z,14.04
2023-05-13T09:18:11.800Z,13.97
2023-05-13T09:19:11.874Z,13.97
2023-05-13T09:20:11.721Z,13.96
2023-05-13T09:21:11.698Z,13.95
2023-05-13T09:22:11.710Z,13.89
2023-05-13T09:23:11.692Z,13.89
2023-05-13T09:24:11.795Z,13.85
2023-05-13T09:25:11.655Z,13.79
2023-05-13T09:26:11.640Z,13.77
2023-05-13T09:27:11.661Z,13.78
2023-05-13T09:28:11.607Z,13.74
2023-05-13T09:29:11.604Z,13.71
2023-05-13T09:30:11.600Z,13.71
2023-05-13T09:31:11.690Z,13.72
2023-05-13T09:32:11.562Z,13.74
2023-05-13T09:33:11.637Z,13.75
2023-05-13T09:34:11.527Z,13.72
2023-05-13T09:35:11.518Z,13.65
2023-05-13T09:36:11.521Z,13.63
2023-05-13T09:37:11.535Z,13.62
2023-05-13T09:38:11.473Z,13.60
2023-05-13T09:39:11.457Z,13.60
2023-05-13T09:40:11.451Z,13.60
2023-05-13T09:41:11.428Z,13.62
2023-05-13T09:42:11.445Z,13.63
2023-05-13T09:43:11.405Z,13.67
2023-05-13T09:44:11.422Z,13.67
2023-05-13T09:45:11.377Z,13.67
2023-05-13T09:46:11.363Z,13.65
2023-05-13T09:47:11.433Z,13.68
2023-05-13T09:48:11.468Z,13.70
2023-05-13T09:49:11.388Z,13.72
2023-05-13T09:50:11.326Z,13.74
2023-05-13T09:51:11.350Z,13.79
2023-05-13T09:52:11.301Z,13.83
2023-05-13T09:53:11.394Z,13.86
2023-05-13T09:54:12.572Z,13.89
2023-05-13T09:55:11.282Z,13.90
2023-05-13T09:56:11.234Z,13.96
2023-05-13T09:57:11.224Z,13.97
2023-05-13T09:58:11.214Z,14.00
2023-05-13T09:59:11.267Z,14.03
2023-05-13T10:00:21.004Z,14.05
2023-05-13T10:01:11.219Z,14.08
2023-05-13T10:02:11.168Z,14.10
2023-05-13T10:03:11.207Z,14.12
2023-05-13T10:04:11.221Z,14.10
2023-05-13T10:05:11.155Z,14.11
2023-05-13T10:06:11.114Z,14.15
2023-05-13T10:07:11.092Z,14.18
2023-05-13T10:08:11.085Z,14.25
2023-05-13T10:09:11.099Z,14.30
2023-05-13T10:10:11.063Z,14.36
2023-05-13T10:11:11.106Z,14.33
2023-05-13T10:12:11.030Z,14.37
2023-05-13T10:13:11.071Z,14.40
2023-05-13T10:14:10.990Z,14.41
2023-05-13T10:15:10.974Z,14.44
2023-05-13T10:16:11.044Z,14.53
2023-05-13T10:17:10.965Z,14.69
2023-05-13T10:18:10.999Z,14.86
2023-05-13T10:19:11.103Z,14.99
2023-05-13T10:20:10.949Z,15.07
2023-05-13T10:21:10.927Z,15.11
2023-05-13T10:22:10.893Z,15.14
2023-05-13T10:23:10.907Z,15.17
2023-05-13T10:24:10.878Z,15.18
2023-05-13T10:25:10.865Z,15.18
2023-05-13T10:26:10.844Z,15.19
2023-05-13T10:27:10.810Z,15.19
2023-05-13T10:28:10.883Z,15.15
2023-05-13T10:29:10.795Z,15.10
2023-05-13T10:30:10.815Z,14.97
2023-05-13T10:31:10.771Z,14.88
2023-05-13T10:32:10.866Z,14.81
2023-05-13T10:33:10.921Z,14.68
2023-05-13T10:34:10.747Z,14.60
2023-05-13T10:35:10.753Z,14.59
2023-05-13T10:36:10.748Z,14.54
2023-05-13T10:37:10.704Z,14.51
2023-05-13T10:38:10.681Z,14.48
2023-05-13T10:39:10.709Z,14.45
2023-05-13T10:40:10.664Z,14.45
2023-05-13T10:41:10.633Z,14.44
2023-05-13T10:42:10.634Z,14.43
2023-05-13T10:43:10.607Z,14.43
2023-05-13T10:44:10.648Z,14.40
2023-05-13T10:45:10.588Z,14.40
2023-05-13T10:46:10.614Z,14.41
2023-05-13T10:47:10.583Z,14.37
2023-05-13T10:48:10.603Z,14.37
2023-05-13T10:49:10.592Z,14.35
2023-05-13T10:50:10.534Z,14.37
2023-05-13T10:51:10.512Z,14.36
2023-05-13T10:52:12.751Z,14.37
2023-05-13T10:53:10.480Z,14.35
2023-05-13T10:54:10.452Z,14.32
2023-05-13T10:55:10.465Z,14.30
2023-05-13T10:56:10.432Z,14.32
2023-05-13T10:57:10.443Z,14.33
2023-05-13T10:58:10.438Z,14.32
2023-05-13T10:59:10.401Z,14.29
2023-05-13T11:00:10.388Z,14.30
2023-05-13T11:01:10.432Z,14.28
2023-05-13T11:02:10.426Z,14.28
2023-05-13T11:03:10.421Z,14.32
2023-05-13T11:04:10.372Z,14.35
2023-05-13T11:05:10.314Z,14.37
2023-05-13T11:06:10.316Z,14.40
2023-05-13T11:07:10.292Z,14.44
2023-05-13T11:08:10.263Z,14.50
2023-05-13T11:09:10.258Z,14.55
2023-05-13T11:10:10.275Z,14.66
2023-05-13T11:11:10.236Z,14.73
2023-05-13T11:12:10.219Z,14.82
2023-05-13T11:13:10.234Z,14.89
2023-05-13T11:14:10.205Z,14.91
2023-05-13T11:15:10.178Z,14.96
2023-05-13T11:16:10.229Z,14.97
2023-05-13T11:17:10.176Z,14.97
2023-05-13T11:18:10.205Z,14.97
2023-05-13T11:19:10.277Z,14.96
2023-05-13T11:20:10.125Z,14.97
2023-05-13T11:21:10.116Z,14.97
2023-05-13T11:22:10.127Z,14.94
2023-05-13T11:23:10.077Z,14.89
2023-05-13T11:24:10.065Z,14.89
2023-05-13T11:25:10.057Z,14.86
2023-05-13T11:26:11.340Z,14.79
2023-05-13T11:27:10.013Z,14.73
2023-05-13T11:28:10.031Z,14.72
2023-05-13T11:29:10.007Z,14.69
2023-05-13T11:30:09.981Z,14.65
2023-05-13T11:31:10.001Z,14.60
2023-05-13T11:32:09.978Z,14.55
2023-05-13T11:33:09.999Z,14.53
2023-05-13T11:34:10.052Z,14.53
2023-05-13T11:35:09.958Z,14.53
2023-05-13T11:36:09.907Z,14.50
2023-05-13T11:37:09.949Z,14.48
2023-05-13T11:38:09.875Z,14.48
2023-05-13T11:39:09.847Z,14.47
2023-05-13T11:40:09.873Z,14.48
2023-05-13T11:41:09.832Z,14.47
2023-05-13T11:42:09.839Z,14.44
2023-05-13T11:43:09.821Z,14.41
2023-05-13T11:44:09.830Z,14.36
2023-05-13T11:45:09.781Z,14.33
2023-05-13T11:46:09.805Z,14.32
2023-05-13T11:47:09.771Z,14.30
2023-05-13T11:48:09.797Z,14.29
2023-05-13T11:49:09.737Z,14.28
2023-05-13T11:50:09.750Z,14.29
2023-05-13T11:51:09.719Z,14.29
2023-05-13T11:52:09.730Z,14.35
2023-05-13T11:53:09.682Z,14.41
2023-05-13T11:54:09.665Z,14.47
2023-05-13T11:55:09.667Z,14.50
2023-05-13T11:56:09.657Z,14.54
2023-05-13T11:57:09.652Z,14.60
2023-05-13T11:58:09.611Z,14.66
2023-05-13T11:59:09.603Z,14.66
2023-05-13T12:00:09.579Z,14.72
2023-05-13T12:01:09.607Z,14.77
2023-05-13T12:02:09.611Z,14.84
2023-05-13T12:03:09.679Z,14.91
2023-05-13T12:04:09.549Z,14.99
2023-05-13T12:05:09.645Z,15.11
2023-05-13T12:06:09.530Z,15.19
2023-05-13T12:07:09.540Z,15.35
2023-05-13T12:08:09.485Z,15.46
2023-05-13T12:09:09.805Z,15.54
2023-05-13T12:10:09.467Z,15.59
2023-05-13T12:11:09.454Z,15.67
2023-05-13T12:12:09.439Z,15.72
2023-05-13T12:13:09.487Z,15.73
2023-05-13T12:14:09.429Z,15.73
2023-05-13T12:15:09.382Z,15.75
2023-05-13T12:16:09.430Z,15.77
2023-05-13T12:17:09.390Z,15.79
2023-05-13T12:18:09.436Z,15.75
2023-05-13T12:19:09.410Z,15.77
2023-05-13T12:20:09.319Z,15.79
2023-05-13T12:21:09.313Z,15.84
2023-05-13T12:22:09.301Z,15.82
2023-05-13T12:23:09.328Z,15.76
2023-05-13T12:24:09.280Z,15.72
2023-05-13T12:25:09.278Z,15.72
2023-05-13T12:26:09.232Z,15.68
2023-05-13T12:27:11.396Z,15.67
2023-05-13T12:28:09.246Z,15.68
2023-05-13T12:29:09.231Z,15.75
2023-05-13T12:30:09.193Z,15.84
2023-05-13T12:31:09.226Z,15.92
2023-05-13T12:32:09.194Z,16.00
2023-05-13T12:33:09.219Z,16.02
2023-05-13T12:34:09.127Z,16.09
2023-05-13T12:35:09.125Z,16.05
2023-05-13T12:36:09.124Z,16.08
2023-05-13T12:37:09.180Z,16.08
2023-05-13T12:38:09.080Z,16.10
2023-05-13T12:39:09.108Z,16.15
2023-05-13T12:40:09.038Z,16.15
2023-05-13T12:41:09.053Z,16.08
2023-05-13T12:42:09.042Z,16.01
2023-05-13T12:43:09.007Z,15.95
2023-05-13T12:44:09.000Z,15.84
2023-05-13T12:45:09.001Z,15.80
2023-05-13T12:46:09.025Z,15.77
2023-05-13T12:47:08.990Z,15.76
2023-05-13T12:48:08.977Z,15.76
2023-05-13T12:49:08.935Z,15.76
2023-05-13T12:50:08.984Z,15.77
2023-05-13T12:51:08.924Z,15.80
2023-05-13T12:52:08.895Z,15.80
2023-05-13T12:53:08.909Z,15.79